createdAt,value
2022-11-08T00:00:00.861Z,72.07
2022-11-08T00:02:28.240Z,72.02
2022-11-08T00:04:55.445Z,72.00
2022-11-08T00:07:41.722Z,71.96
2022-11-08T00:10:29.137Z,72.02
2022-11-08T00:13:14.971Z,72.10
2022-11-08T00:15:42.131Z,71.86
2022-11-08T00:18:09.358Z,71.80
2022-11-08T00:20:36.507Z,71.85
2022-11-08T00:23:38.279Z,71.97
2022-11-08T00:26:18.403Z,72.11
2022-11-08T00:28:45.602Z,72.16
2022-11-08T00:31:12.738Z,71.86
2022-11-08T00:33:39.906Z,71.92
2022-11-08T00:36:07.349Z,71.98
2022-11-08T00:38:34.765Z,71.98
2022-11-08T00:41:01.835Z,71.97
2022-11-08T00:43:29.032Z,72.24
2022-11-08T00:45:56.043Z,72.16
2022-11-08T00:48:23.271Z,72.07
2022-11-08T00:50:50.618Z,72.02
2022-11-08T00:53:17.905Z,72.12
2022-11-08T00:55:45.516Z,71.98
2022-11-08T00:58:12.784Z,72.03
2022-11-08T01:00:39.994Z,72.03
2022-11-08T01:03:19.228Z,71.88
2022-11-08T01:05:50.880Z,72.17
2022-11-08T01:08:19.756Z,72.17
2022-11-08T01:10:50.811Z,72.12
2022-11-08T01:13:19.194Z,72.00
2022-11-08T01:15:47.079Z,72.20
2022-11-08T01:18:16.987Z,72.20
2022-11-08T01:20:45.950Z,72.11
2022-11-08T01:23:13.825Z,72.36
2022-11-08T01:25:43.640Z,72.16
2022-11-08T01:28:12.200Z,72.10
2022-11-08T01:30:40.956Z,71.99
2022-11-08T01:33:08.304Z,72.02
2022-11-08T01:35:36.306Z,72.28
2022-11-08T01:38:05.462Z,72.16
2022-11-08T01:40:33.319Z,72.12
2022-11-08T01:43:00.772Z,72.16
2022-11-08T01:46:02.614Z,72.18
2022-11-08T01:48:29.931Z,72.11
2022-11-08T01:50:59.914Z,72.08
2022-11-08T01:53:29.295Z,72.03
2022-11-08T01:55:56.796Z,72.10
2022-11-08T01:58:30.738Z,72.01
2022-11-08T02:01:00.066Z,71.99
2022-11-08T02:03:29.335Z,72.20
2022-11-08T02:05:57.000Z,72.09
2022-11-08T02:08:44.896Z,72.07
2022-11-08T02:11:15.439Z,71.97
2022-11-08T02:13:42.745Z,72.09
2022-11-08T02:16:14.539Z,72.00
2022-11-08T02:18:44.325Z,72.06
2022-11-08T02:21:35.709Z,72.11
2022-11-08T02:24:11.922Z,71.94
2022-11-08T02:26:39.834Z,72.14
2022-11-08T02:29:29.726Z,72.00
2022-11-08T02:31:58.028Z,72.17
2022-11-08T02:34:30.127Z,72.11
2022-11-08T02:36:57.404Z,72.13
2022-11-08T02:39:24.551Z,72.21
2022-11-08T02:41:52.052Z,72.15
2022-11-08T02:44:19.179Z,72.16
2022-11-08T02:46:46.275Z,72.16
2022-11-08T02:49:13.622Z,72.26
2022-11-08T02:51:40.751Z,72.22
2022-11-08T02:54:07.948Z,72.08
2022-11-08T02:56:35.084Z,72.23
2022-11-08T02:59:02.226Z,72.41
2022-11-08T03:01:29.545Z,72.32
2022-11-08T03:03:56.797Z,72.10
2022-11-08T03:06:23.990Z,72.33
2022-11-08T03:08:51.147Z,72.31
2022-11-08T03:11:18.218Z,72.22
2022-11-08T03:13:45.293Z,72.32
2022-11-08T03:16:12.401Z,72.35
2022-11-08T03:18:39.533Z,72.44
2022-11-08T03:21:06.644Z,72.20
2022-11-08T03:23:33.817Z,72.34
2022-11-08T03:26:02.871Z,72.34
2022-11-08T03:28:30.424Z,72.24
2022-11-08T03:30:57.512Z,72.23
2022-11-08T03:33:24.917Z,72.24
2022-11-08T03:35:52.747Z,72.16
2022-11-08T03:38:20.360Z,72.16
2022-11-08T03:40:47.927Z,72.29
2022-11-08T03:43:15.359Z,72.23
2022-11-08T03:45:42.501Z,72.23
2022-11-08T03:48:09.625Z,72.18
2022-11-08T03:50:36.842Z,72.26
2022-11-08T03:53:03.973Z,72.48
2022-11-08T03:55:31.392Z,72.38
2022-11-08T03:57:58.492Z,72.30
2022-11-08T04:00:28.193Z,72.17
2022-11-08T04:03:01.092Z,72.32
2022-11-08T04:05:28.213Z,72.50
2022-11-08T04:07:55.301Z,72.28
2022-11-08T04:10:22.494Z,72.25
2022-11-08T04:13:08.216Z,72.32
2022-11-08T04:15:35.341Z,72.34
2022-11-08T04:18:21.920Z,72.23
2022-11-08T04:21:08.329Z,72.51
2022-11-08T04:23:36.392Z,72.34
2022-11-08T04:26:07.884Z,72.39
2022-11-08T04:28:37.176Z,72.28
2022-11-08T04:31:09.417Z,72.16
2022-11-08T04:33:36.556Z,72.25
2022-11-08T04:36:07.740Z,72.39
2022-11-08T04:38:35.450Z,72.30
2022-11-08T04:41:05.520Z,72.47
2022-11-08T04:43:33.104Z,72.35
2022-11-08T04:46:09.411Z,72.33
2022-11-08T04:48:37.216Z,72.39
2022-11-08T04:51:06.265Z,72.26
2022-11-08T04:53:34.024Z,72.53
2022-11-08T04:56:09.488Z,72.30
2022-11-08T04:58:39.696Z,72.30
2022-11-08T05:01:08.598Z,72.40
2022-11-08T05:03:35.899Z,72.25
2022-11-08T05:06:07.706Z,72.24
2022-11-08T05:08:34.924Z,72.43
2022-11-08T05:11:09.085Z,72.52
2022-11-08T05:13:36.760Z,72.46
2022-11-08T05:16:08.580Z,72.32
2022-11-08T05:18:35.743Z,72.34
2022-11-08T05:21:22.407Z,72.33
2022-11-08T05:23:50.769Z,72.39
2022-11-08T05:26:19.905Z,72.41
2022-11-08T05:28:47.614Z,72.52
2022-11-08T05:31:15.825Z,72.40
2022-11-08T05:33:43.458Z,72.42
2022-11-08T05:36:14.081Z,72.43
2022-11-08T05:38:42.356Z,72.53
2022-11-08T05:41:15.833Z,72.47
2022-11-08T05:43:45.104Z,72.48
2022-11-08T05:46:12.882Z,72.35
2022-11-08T05:48:41.785Z,72.39
2022-11-08T05:51:09.430Z,72.21
2022-11-08T05:53:36.546Z,72.52
2022-11-08T05:56:04.955Z,72.45
2022-11-08T05:58:34.558Z,72.46
2022-11-08T06:01:06.045Z,72.43
2022-11-08T06:03:34.074Z,72.56
2022-11-08T06:06:03.335Z,72.45
2022-11-08T06:08:30.811Z,72.34
2022-11-08T06:11:05.532Z,72.53
2022-11-08T06:13:33.602Z,72.45
2022-11-08T06:16:07.134Z,72.41
2022-11-08T06:18:35.124Z,72.61
2022-11-08T06:21:04.071Z,72.42
2022-11-08T06:23:32.058Z,72.67
2022-11-08T06:26:00.005Z,72.42
2022-11-08T06:28:27.592Z,72.53
2022-11-08T06:30:54.780Z,72.62
2022-11-08T06:33:22.305Z,72.68
2022-11-08T06:35:49.504Z,72.66
2022-11-08T06:38:16.700Z,72.60
2022-11-08T06:40:45.027Z,72.55
2022-11-08T06:43:19.057Z,72.63
2022-11-08T06:45:46.779Z,72.44
2022-11-08T06:48:14.217Z,72.45
2022-11-08T06:50:42.090Z,72.58
2022-11-08T06:53:12.526Z,72.49
2022-11-08T06:55:39.657Z,72.60
2022-11-08T06:58:06.915Z,72.49
2022-11-08T07:00:34.220Z,72.70
2022-11-08T07:03:03.668Z,72.59
2022-11-08T07:05:33.071Z,72.60
2022-11-08T07:08:01.129Z,72.42
2022-11-08T07:10:30.702Z,72.75
2022-11-08T07:13:03.878Z,72.78
2022-11-08T07:15:32.224Z,72.57
2022-11-08T07:18:05.414Z,72.63
2022-11-08T07:20:32.978Z,72.46
2022-11-08T07:23:00.149Z,72.60
2022-11-08T07:25:28.963Z,72.65
2022-11-08T07:27:57.805Z,72.71
2022-11-08T07:30:25.643Z,72.74
2022-11-08T07:32:52.841Z,72.71
2022-11-08T07:35:20.030Z,72.66
2022-11-08T07:37:47.261Z,72.63
2022-11-08T07:40:14.948Z,72.73
2022-11-08T07:43:10.047Z,72.74
2022-11-08T07:45:30.240Z,72.72
2022-11-08T07:48:06.665Z,72.58
2022-11-08T07:50:36.916Z,72.69
2022-11-08T07:53:04.007Z,72.54
2022-11-08T07:55:31.177Z,72.70
2022-11-08T07:58:02.195Z,72.70
2022-11-08T08:00:30.781Z,72.44
2022-11-08T08:03:02.560Z,72.59
2022-11-08T08:05:39.359Z,72.58
2022-11-08T08:08:07.038Z,72.60
2022-11-08T08:10:34.891Z,72.71
2022-11-08T08:13:02.482Z,72.62
2022-11-08T08:15:29.598Z,72.80
2022-11-08T08:18:00.358Z,72.71
2022-11-08T08:20:27.754Z,72.72
2022-11-08T08:22:54.931Z,72.92
2022-11-08T08:25:22.112Z,72.66
2022-11-08T08:27:51.008Z,72.87
2022-11-08T08:30:18.603Z,72.63
2022-11-08T08:32:53.554Z,72.80
2022-11-08T08:35:24.993Z,72.75
2022-11-08T08:37:52.117Z,72.74
2022-11-08T08:40:19.205Z,73.04
2022-11-08T08:42:46.277Z,73.00
2022-11-08T08:45:15.144Z,72.75
2022-11-08T08:47:42.557Z,72.99
2022-11-08T08:50:10.187Z,72.75
2022-11-08T08:52:37.397Z,72.53
2022-11-08T08:55:04.879Z,72.37
2022-11-08T08:57:32.302Z,72.64
2022-11-08T09:02:46.763Z,72.36
2022-11-08T09:05:14.305Z,72.38
2022-11-08T09:07:42.011Z,72.38
2022-11-08T09:10:10.487Z,72.43
2022-11-08T09:12:38.451Z,72.53
2022-11-08T09:15:06.572Z,72.69
2022-11-08T09:17:33.862Z,72.55
2022-11-08T09:20:01.062Z,72.60
2022-11-08T09:22:28.008Z,72.76
2022-11-08T09:24:55.150Z,72.61
2022-11-08T09:27:22.305Z,72.57
2022-11-08T09:29:49.397Z,72.70
2022-11-08T09:32:21.666Z,72.53
2022-11-08T09:35:00.461Z,72.62
2022-11-08T09:37:29.161Z,72.60
2022-11-08T09:39:56.496Z,72.48
2022-11-08T09:42:49.572Z,72.33
2022-11-08T09:45:21.138Z,72.42
2022-11-08T09:48:05.350Z,72.32
2022-11-08T09:50:42.025Z,72.47
2022-11-08T09:53:24.669Z,72.19
2022-11-08T09:56:01.831Z,72.23
2022-11-08T09:58:35.610Z,72.21
2022-11-08T10:01:03.832Z,72.33
2022-11-08T10:03:31.334Z,72.19
2022-11-08T10:06:29.395Z,72.40
2022-11-08T10:09:16.532Z,72.26
2022-11-08T10:11:46.706Z,72.24
2022-11-08T10:14:44.367Z,72.07
2022-11-08T10:17:27.131Z,72.08
2022-11-08T10:20:13.857Z,72.21
2022-11-08T10:23:24.131Z,72.29
2022-11-08T10:26:06.037Z,71.89
2022-11-08T10:28:51.915Z,72.13
2022-11-08T10:31:20.838Z,72.15
2022-11-08T10:33:56.793Z,72.21
2022-11-08T10:36:42.543Z,72.04
2022-11-08T10:39:09.602Z,72.12
2022-11-08T10:41:58.499Z,72.05
2022-11-08T10:44:27.487Z,72.12
2022-11-08T10:46:58.977Z,71.94
2022-11-08T10:49:27.629Z,71.84
2022-11-08T10:51:57.336Z,71.84
2022-11-08T10:54:46.081Z,71.85
2022-11-08T10:57:38.181Z,71.94
2022-11-08T11:00:20.434Z,71.84
2022-11-08T11:03:06.198Z,71.91
2022-11-08T11:05:37.003Z,71.74
2022-11-08T11:08:04.138Z,71.81
2022-11-08T11:10:34.422Z,71.63
2022-11-08T11:13:06.802Z,71.77
2022-11-08T11:15:46.619Z,71.68
2022-11-08T11:18:32.229Z,71.57
2022-11-08T11:21:24.160Z,71.47
2022-11-08T11:23:58.645Z,71.57
2022-11-08T11:26:34.658Z,71.46
2022-11-08T11:29:07.754Z,71.41
2022-11-08T11:31:40.640Z,71.53
2022-11-08T11:34:17.045Z,71.46
2022-11-08T11:36:48.357Z,71.49
2022-11-08T11:39:30.789Z,71.32
2022-11-08T11:42:39.030Z,71.08
2022-11-08T11:45:23.142Z,71.20
2022-11-08T11:47:58.545Z,71.12
2022-11-08T11:50:40.665Z,70.97
2022-11-08T11:53:17.095Z,71.28
2022-11-08T11:56:05.926Z,71.22
2022-11-08T11:58:45.064Z,71.16
2022-11-08T12:01:18.681Z,71.16
2022-11-08T12:04:23.026Z,71.19
2022-11-08T12:07:10.875Z,70.93
2022-11-08T12:09:38.069Z,70.91
2022-11-08T12:12:27.221Z,70.84
2022-11-08T12:15:12.429Z,70.89
2022-11-08T12:18:01.226Z,71.00
2022-11-08T12:20:58.429Z,70.90
2022-11-08T12:23:35.581Z,70.77
2022-11-08T12:26:38.030Z,70.65
2022-11-08T12:29:23.627Z,70.60
2022-11-08T12:32:09.593Z,70.53
2022-11-08T12:34:46.213Z,70.76
2022-11-08T12:37:41.147Z,70.66
2022-11-08T12:40:20.879Z,70.61
2022-11-08T12:43:08.133Z,70.52
2022-11-08T12:45:35.233Z,70.64
2022-11-08T12:48:14.419Z,70.37
2022-11-08T12:51:03.594Z,70.27
2022-11-08T12:53:37.132Z,70.41
2022-11-08T12:56:11.315Z,70.32
2022-11-08T12:58:49.491Z,70.52
2022-11-08T13:01:19.798Z,70.40
2022-11-08T13:04:19.000Z,70.24
2022-11-08T13:06:54.377Z,70.35
2022-11-08T13:09:40.405Z,70.16
2022-11-08T13:12:10.298Z,70.11
2022-11-08T13:14:41.249Z,70.14
2022-11-08T13:17:18.825Z,70.13
2022-11-08T13:19:49.608Z,70.09
2022-11-08T13:22:29.173Z,70.13
2022-11-08T13:24:57.916Z,70.16
2022-11-08T13:27:37.471Z,70.03
2022-11-08T13:30:25.452Z,70.02
2022-11-08T13:33:07.317Z,70.02
2022-11-08T13:35:43.733Z,70.00
2022-11-08T13:38:35.794Z,70.08
2022-11-08T13:41:11.942Z,70.14
2022-11-08T13:43:39.501Z,70.00
2022-11-08T13:46:28.111Z,69.90
2022-11-08T13:48:58.471Z,70.04
2022-11-08T13:51:31.393Z,70.06
2022-11-08T13:53:58.516Z,70.02
2022-11-08T13:56:42.535Z,70.00
2022-11-08T13:59:35.949Z,69.84
2022-11-08T14:02:21.711Z,69.84
2022-11-08T14:04:49.086Z,70.00
2022-11-08T14:07:48.683Z,69.85
2022-11-08T14:10:38.906Z,70.00
2022-11-08T14:13:30.209Z,69.94
2022-11-08T14:16:02.267Z,69.85
2022-11-08T14:18:31.805Z,69.74
2022-11-08T14:20:59.945Z,69.78
2022-11-08T14:23:38.047Z,69.79
2022-11-08T14:26:12.421Z,69.77
2022-11-08T14:28:46.655Z,69.69
2022-11-08T14:31:28.161Z,69.78
2022-11-08T14:33:56.220Z,69.81
2022-11-08T14:36:25.140Z,69.71
2022-11-08T14:38:59.072Z,69.73
2022-11-08T14:41:28.983Z,69.52
2022-11-08T14:43:58.678Z,69.65
2022-11-08T14:46:32.793Z,69.65
2022-11-08T14:49:14.061Z,69.68
2022-11-08T14:51:42.104Z,69.78
2022-11-08T14:54:22.015Z,69.61
2022-11-08T14:56:50.505Z,69.60
2022-11-08T14:59:18.542Z,69.65
2022-11-08T15:01:48.865Z,69.51
2022-11-08T15:04:20.461Z,69.55
2022-11-08T15:06:53.874Z,69.45
2022-11-08T15:09:26.347Z,69.42
2022-11-08T15:11:56.818Z,69.60
2022-11-08T15:14:27.888Z,69.48
2022-11-08T15:17:02.561Z,69.36
2022-11-08T15:19:41.251Z,69.57
2022-11-08T15:22:27.011Z,69.43
2022-11-08T15:25:15.821Z,69.64
2022-11-08T15:27:56.966Z,69.43
2022-11-08T15:30:30.271Z,69.41
2022-11-08T15:32:57.529Z,69.52
2022-11-08T15:35:32.459Z,69.41
2022-11-08T15:38:04.385Z,69.53
2022-11-08T15:40:33.986Z,69.45
2022-11-08T15:43:01.295Z,69.47
2022-11-08T15:45:33.306Z,69.42
2022-11-08T15:48:11.919Z,69.53
2022-11-08T15:50:39.257Z,69.48
2022-11-08T15:53:06.608Z,69.41
2022-11-08T15:55:39.473Z,69.61
2022-11-08T15:58:16.178Z,69.59
2022-11-08T16:00:48.662Z,69.41
2022-11-08T16:03:15.873Z,69.46
2022-11-08T16:05:43.109Z,69.34
2022-11-08T16:08:10.306Z,69.67
2022-11-08T16:10:40.903Z,69.47
2022-11-08T16:13:31.300Z,69.44
2022-11-08T16:15:59.205Z,69.61
2022-11-08T16:18:26.653Z,69.37
2022-11-08T16:20:53.794Z,69.31
2022-11-08T16:23:20.913Z,69.48
2022-11-08T16:25:50.474Z,69.40
2022-11-08T16:28:17.610Z,69.44
2022-11-08T16:30:47.078Z,69.49
2022-11-08T16:33:25.309Z,69.78
2022-11-08T16:35:55.372Z,69.78
2022-11-08T16:38:33.739Z,69.52
2022-11-08T16:41:01.433Z,69.53
2022-11-08T16:43:29.193Z,69.46
2022-11-08T16:46:06.381Z,69.46
2022-11-08T16:48:36.708Z,69.46
2022-11-08T16:51:07.151Z,69.49
2022-11-08T16:53:35.733Z,69.33
2022-11-08T16:56:02.912Z,69.43
2022-11-08T16:58:30.065Z,69.54
2022-11-08T17:00:57.750Z,69.35
2022-11-08T17:03:29.745Z,69.48
2022-11-08T17:05:57.827Z,69.51
2022-11-08T17:08:25.187Z,69.40
2022-11-08T17:10:56.013Z,69.36
2022-11-08T17:13:23.218Z,69.41
2022-11-08T17:15:51.227Z,69.41
2022-11-08T17:18:21.160Z,69.41
2022-11-08T17:20:49.074Z,69.64
2022-11-08T17:23:16.767Z,69.39
2022-11-08T17:25:44.674Z,69.47
2022-11-08T17:28:12.700Z,69.49
2022-11-08T17:30:44.733Z,69.53
2022-11-08T17:33:13.392Z,69.52
2022-11-08T17:35:43.921Z,69.34
2022-11-08T17:38:12.671Z,69.37
2022-11-08T17:40:42.323Z,69.31
2022-11-08T17:43:09.719Z,69.47
2022-11-08T17:45:36.905Z,69.49
2022-11-08T17:48:04.140Z,69.59
2022-11-08T17:50:31.189Z,69.68
2022-11-08T17:52:58.229Z,69.60
2022-11-08T17:55:25.367Z,69.64
2022-11-08T17:57:52.529Z,69.58
2022-11-08T18:00:19.763Z,69.48
2022-11-08T18:02:47.009Z,69.55
2022-11-08T18:05:14.194Z,69.42
2022-11-08T18:07:41.326Z,69.50
2022-11-08T18:10:09.756Z,69.44
2022-11-08T18:12:37.078Z,69.43
2022-11-08T18:15:05.367Z,69.45
2022-11-08T18:17:32.361Z,69.40
2022-11-08T18:19:59.512Z,69.68
2022-11-08T18:22:26.908Z,69.52
2022-11-08T18:24:54.086Z,69.49
2022-11-08T18:27:21.448Z,69.67
2022-11-08T18:29:48.613Z,69.72
2022-11-08T18:32:16.099Z,69.73
2022-11-08T18:34:43.308Z,69.52
2022-11-08T18:37:10.437Z,69.51
2022-11-08T18:39:37.660Z,69.47
2022-11-08T18:42:05.044Z,69.68
2022-11-08T18:44:32.149Z,69.65
2022-11-08T18:46:59.969Z,69.79
2022-11-08T18:49:28.525Z,69.65
2022-11-08T18:51:56.870Z,69.55
2022-11-08T18:54:26.916Z,69.55
2022-11-08T18:56:54.090Z,69.54
2022-11-08T18:59:21.505Z,69.79
2022-11-08T19:01:48.681Z,69.63
2022-11-08T19:04:15.901Z,69.81
2022-11-08T19:06:43.270Z,69.77
2022-11-08T19:09:10.536Z,69.66
2022-11-08T19:11:37.834Z,69.70
2022-11-08T19:14:05.118Z,69.88
2022-11-08T19:16:32.472Z,69.92
2022-11-08T19:18:59.980Z,69.67
2022-11-08T19:21:28.539Z,69.87
2022-11-08T19:23:59.666Z,69.74
2022-11-08T19:26:28.813Z,69.65
2022-11-08T19:28:57.362Z,69.78
2022-11-08T19:31:25.639Z,69.72
2022-11-08T19:33:54.166Z,69.87
2022-11-08T19:36:26.721Z,69.93
2022-11-08T19:38:55.940Z,69.95
2022-11-08T19:41:25.486Z,69.75
2022-11-08T19:43:53.102Z,69.62
2022-11-08T19:46:23.934Z,69.77
2022-11-08T19:48:52.562Z,69.73
2022-11-08T19:51:26.555Z,69.77
2022-11-08T19:54:02.100Z,69.96
2022-11-08T19:56:57.852Z,69.80
2022-11-08T19:59:18.317Z,69.72
2022-11-08T20:01:47.135Z,69.88
2022-11-08T20:04:18.810Z,69.80
2022-11-08T20:06:46.785Z,69.66
2022-11-08T20:09:14.689Z,69.68
2022-11-08T20:11:42.820Z,69.79
2022-11-08T20:14:13.109Z,69.94
2022-11-08T20:16:43.165Z,69.85
2022-11-08T20:19:16.511Z,69.85
2022-11-08T20:21:46.441Z,69.96
2022-11-08T20:24:14.712Z,69.70
2022-11-08T20:26:42.570Z,69.82
2022-11-08T20:29:10.126Z,69.76
2022-11-08T20:31:37.503Z,69.79
2022-11-08T20:34:07.542Z,69.91
2022-11-08T20:36:37.572Z,69.90
2022-11-08T20:39:07.721Z,69.91
2022-11-08T20:41:37.876Z,69.85
2022-11-08T20:44:06.541Z,70.13
2022-11-08T20:46:34.910Z,69.77
2022-11-08T20:49:02.520Z,69.84
2022-11-08T20:51:31.181Z,69.88
2022-11-08T20:54:00.261Z,69.92
2022-11-08T20:56:29.105Z,69.97
2022-11-08T20:58:56.624Z,69.99
2022-11-08T21:01:27.301Z,69.91
2022-11-08T21:03:55.315Z,70.06
2022-11-08T21:06:24.455Z,69.86
2022-11-08T21:09:03.249Z,69.97
2022-11-08T21:11:37.992Z,69.94
2022-11-08T21:14:05.680Z,70.09
2022-11-08T21:16:47.375Z,70.03
2022-11-08T21:19:20.708Z,70.00
2022-11-08T21:21:47.939Z,70.13
2022-11-08T21:24:15.099Z,69.87
2022-11-08T21:26:42.225Z,69.92
2022-11-08T21:29:09.446Z,70.12
2022-11-08T21:31:36.426Z,70.03
2022-11-08T21:34:03.511Z,70.03
2022-11-08T21:36:30.518Z,69.96
2022-11-08T21:38:57.860Z,70.18
2022-11-08T21:41:25.049Z,70.16
2022-11-08T21:43:52.200Z,70.27
2022-11-08T21:46:24.990Z,70.23
2022-11-08T21:48:57.171Z,70.04
2022-11-08T21:51:24.895Z,69.97
2022-11-08T21:53:55.271Z,70.14
2022-11-08T21:56:25.237Z,70.28
2022-11-08T21:58:53.084Z,70.05
2022-11-08T22:01:24.135Z,70.11
2022-11-08T22:03:52.598Z,70.05
2022-11-08T22:06:21.595Z,70.14
2022-11-08T22:08:49.137Z,70.14
2022-11-08T22:11:16.335Z,70.07
2022-11-08T22:13:43.476Z,70.26
2022-11-08T22:16:10.641Z,70.14
2022-11-08T22:21:43.271Z,70.11
2022-11-08T22:24:20.595Z,70.21
2022-11-08T22:26:49.326Z,70.21
2022-11-08T22:29:17.182Z,70.37
2022-11-08T22:31:45.896Z,70.18
2022-11-08T22:34:13.322Z,70.29
2022-11-08T22:36:45.413Z,70.11
2022-11-08T22:39:18.559Z,70.15
2022-11-08T22:41:47.895Z,70.19
2022-11-08T22:44:15.890Z,70.19
2022-11-08T22:46:47.896Z,70.20
2022-11-08T22:49:15.931Z,70.29
2022-11-08T22:51:43.644Z,70.33
2022-11-08T22:54:10.952Z,70.11
2022-11-08T22:56:38.415Z,70.32
2022-11-08T22:59:05.931Z,70.28
2022-11-08T23:01:34.114Z,70.36
2022-11-08T23:04:01.359Z,70.21
2022-11-08T23:06:28.616Z,70.13
2022-11-08T23:08:55.900Z,70.38
2022-11-08T23:11:41.597Z,70.30
2022-11-08T23:14:33.769Z,70.21
2022-11-08T23:17:04.335Z,70.17
2022-11-08T23:19:50.979Z,70.34
2022-11-08T23:22:37.132Z,70.38
2022-11-08T23:25:04.786Z,70.30
2022-11-08T23:27:50.561Z,70.33
2022-11-08T23:30:37.502Z,70.36
2022-11-08T23:33:06.996Z,70.07
2022-11-08T23:35:34.476Z,70.00
2022-11-08T23:38:02.071Z,70.15
2022-11-08T23:40:48.178Z,70.31
2022-11-08T23:43:38.145Z,70.10
2022-11-08T23:46:09.911Z,70.29
2022-11-08T23:48:37.904Z,70.34
2022-11-08T23:51:06.374Z,70.41
2022-11-08T23:53:34.891Z,70.41
2022-11-08T23:56:02.193Z,70.20
2022-11-08T23:58:29.572Z,70.20
